チタ の空港の天気 - METARとTAF

チタ・カダラ空港 ( UIAA / HTA ) - ロシア チタ
飛行場実況気象(Metar)
観測時間10/22 00:30 YAKT (10/21 15:30 UTC)
風向・風速西南西 3m/s
視程10km以上
天気現象
なし
気温-3℃
湿度59%
気圧1018hPa
METARUIAA 211530Z AUTO 24003MPS 9999 NCD M03/M10 Q1018 RMK QFE705/0940
過去の天気等 Google飛行場航空写真 Wunderground天気予報

過去48時間のMETAR

飛行場予報(TAF)
発表時間: 10/21 23:00 YAKT (10/21 14:00 UTC)
予報対象時間: 22日0時 YAKT ~ 23日0時 YAKT
風向・風速西 3m/s
視程10km以上
全天の4割程度の積乱雲 雲底高度 910m
22日0時 YAKT ~ 22日24時 YAKT に一時的に
風向・風速南南西 5m/s
TAF UIAA 211400Z 2115/2215 26003MPS 9999 SCT030CB
TEMPO 2115/2215 20005MPS